Brookville, Pennsylvania
Current Conditions -  °F | °C
As of 3:53 PM on Friday 24 Oct 2014 (Local Time) from KDUJ Reporting Station
Clear Clear  
Wind Chill: 56°   Ceiling: Unl
Heat Index: 56°   Visibility: 10mi
Dew Point: 37°   Wind: 10mph
Humidity: 49%   Direction: 300°WNW
Pressure: 29.97"   Gusts: NA
Location:  41.16°N, 79.08°W
Report Text: KDUJ 241953Z AUTO 30009KT 10SM CLR 13/03 A2997 RMK AO2 SLP151 T01330028
Loading
Personal Weather Stations






























Interactive Weather Map New forecast layout! Learn more

10-Day Weather Forecast

Advertisements
Track Severe Weather on mobile